KSANKMXO

Guest
Details From KSAN - San Diego Intl
To KMXO - Monticello Rgnl
Flight Number -
Tags Generated
Created
Modified
Stats Distance 1,359 nm / 2,516 km
Max Altitude 0 ft / 0 m
Waypoints 8
Social Downloads 6
Likes 0
Share VATSIM

Download

Looking for another format? Having issues loading an existing format? Contact us
Advertisement - Login to hide

Notes

Generated

Route

KSAN 14743 ZENFO MERTZ UKDAW OFF04 R0445 KMXO

ID Type Via Altitude Latitude Longitude Leg Dist Tot Dist Heading (true) Name
O KSAN APT - 0 ft / 0 m 32.73712˚ -117.20435˚ - 0 nm - -
14743 FIX - 0 ft / 0 m 34.72589˚ -113.10311˚ 237 nm 237 nm 59° / 61° -
ZENFO FIX - 0 ft / 0 m 36.60336˚ -108.87611˚ 235 nm 472 nm 60° / 63° -
MERTZ FIX - 0 ft / 0 m 38.28378˚ -104.64700˚ 225 nm 697 nm 62° / 65° -
UKDAW FIX - 0 ft / 0 m 39.51656˚ -101.04758˚ 183 nm 881 nm 65° / 67° -
OFF04 FIX - 0 ft / 0 m 41.07084˚ -95.83656˚ 256 nm 1137 nm 67° / 70° -
R0445 FIX - 0 ft / 0 m 42.21569˚ -91.16056˚ 220 nm 1358 nm 70° / 73° -
O KMXO APT - 0 ft / 0 m 42.21892˚ -91.16591˚ 0 nm 1358 nm 309° / 309° -

Altitude Profile

Advertisement - Login to hide

Weather


0- 5 10 15 20 25 30 35+ Temperature / ° C

Clouds and Precipitation
Forecast for 2018-05-22 12:00 UTC. Updated an hour ago

Ground ~20,000 ft ~40,000 ft Winds

KSAN

Details ICAO KSAN (SAN)
Name San Diego Intl
Region United States
Timezone America/Los_Angeles (UTC-7.0)
Stats Elevation 17 ft / 5 m (AMSL)
Location 32.733556° -117.189658°
Runways 1
Magnetic Variation 11.488° E

METAR

KSAN 221151Z 19005KT 10SM FEW022 OVC038 16/09 A2992 RMK AO2 SLP130 T01560094 10161 20156 55001

Decode

TAF

TAF KSAN 221125Z 2212/2318 20005KT P6SM SCT025 OVC035 FM222000 27009KT P6SM SCT025 BKN035 TEMPO 2222/2302 SCT025 SCT035 FM230300 VRB04KT P6SM SCT018 OVC025 FM230700 VRB04KT P6SM OVC018 FM231600 VRB04KT P6SM BKN025

Decode

Departure Runways

ID Width Length Bearing (true) Bearing (mag) Surface Threshold Offset Overrun Length
09 200 ft / 61 m 9,387 ft / 2,861 m 106.07° 94.58° Asphalt 699 ft / 213 m 269 ft / 82 m
27 200 ft / 61 m 9,387 ft / 2,861 m 286.08° 274.59° Asphalt 1,811 ft / 552 m 0 ft / 0 m

KMXO

Details ICAO KMXO
Name MONTICELLO RGNL
Region United States
Timezone America/Chicago (UTC-5.0)
Stats Elevation 833 ft / 254 m (AMSL)
Location 42.220018° -91.162910°
Runways 2
Magnetic Variation 1.210° W

METAR

KMXO 221215Z AUTO 31008KT 10SM OVC008 16/15 A3005 RMK AO2

Decode

TAF

Not found

Destination Runways

ID Width Length Bearing (true) Bearing (mag) Surface Threshold Offset Overrun Length
09 90 ft / 27 m 2,285 ft / 696 m 90.00° 91.21° Grass 0 ft / 0 m 0 ft / 0 m
15 75 ft / 23 m 4,402 ft / 1,342 m 153.90° 155.11° Concrete 0 ft / 0 m 0 ft / 0 m
27 90 ft / 27 m 2,285 ft / 696 m 270.00° 271.21° Grass 0 ft / 0 m 0 ft / 0 m
33 75 ft / 23 m 4,402 ft / 1,342 m 333.91° 335.12° Concrete 0 ft / 0 m 0 ft / 0 m